Data for 08/05/2014

Time Sea-Level Adjusted Pressure Absolute Pressure Temperature Relative Humidity Dew Point   
(mb) (inHg) (mb) (inHg) (C) (F) (%) (C) (F)
00:05 1021 30.15 851 25.13 15.2 59.3 81 12 53.5
00:10 1021 30.15 851 25.13 15.1 59.1 82 12 53.5
00:15 1021 30.15 851 25.13 15 59 82 12 53.7
00:20 1021 30.15 851 25.13 14.9 58.9 84 12.2 54
00:25 1021 30.15 851 25.13 14.9 58.8 85 12.4 54.3
00:30 1021 30.15 851 25.13 14.8 58.7 84 12.2 54
00:35 1021 30.15 850 25.1 14.8 58.6 85 12.3 54.2
00:40 1021 30.15 850 25.1 14.7 58.5 84 12.2 53.9
00:45 1021 30.15 850 25.1 14.8 58.6 84 12.2 53.9
00:50 1021 30.15 850 25.1 14.8 58.6 84 12.2 53.9
00:55 1021 30.15 850 25.1 14.8 58.6 86 12.4 54.3
01:00 1021 30.15 850 25.1 14.6 58.3 85 12.2 53.9
01:05 1021 30.15 850 25.1 14.6 58.2 85 12.2 53.9
01:10 1021 30.15 850 25.1 14.5 58.1 87 12.3 54.2
01:15 1021 30.15 850 25.1 14.4 57.9 87 12.2 54
01:20 1021 30.15 850 25.1 14.4 57.8 87 12.3 54.1
01:25 1021 30.15 850 25.1 14.3 57.8 86 12.1 53.8
01:30 1021 30.15 850 25.1 14.3 57.8 85 11.8 53.3
01:35 1021 30.15 850 25.1 14.3 57.7 84 11.7 53.1
01:40 1021 30.15 850 25.1 14.4 57.8 84 11.7 53.1
01:45 1021 30.15 851 25.13 14.4 57.8 84 11.7 53.1
01:50 1021 30.15 851 25.13 14.4 57.8 84 11.7 53.1
01:55 1021 30.15 850 25.1 14.3 57.7 83 11.5 52.8
02:00 1021 30.15 851 25.13 14.2 57.6 85 11.7 53.1
02:05 1021 30.15 851 25.13 14.2 57.6 84 11.5 52.8
02:10 1021 30.15 851 25.13 14.2 57.5 85 11.7 53
02:15 1021 30.15 851 25.13 14.1 57.4 86 11.8 53.2
02:20 1021 30.15 851 25.13 14 57.2 86 11.7 53.1
02:25 1021 30.15 851 25.13 13.9 57.1 87 11.8 53.2
02:30 1021 30.15 851 25.13 13.9 56.9 87 11.7 53.1
02:35 1021 30.15 851 25.13 13.9 57 86 11.6 52.9
02:40 1021 30.15 850 25.1 14 57.2 85 11.5 52.7
02:45 1021 30.15 850 25.1 14.1 57.4 84 11.5 52.8
02:50 1021 30.15 850 25.1 14.2 57.5 84 11.6 52.8
02:55 1021 30.15 851 25.13 14.3 57.7 84 11.6 52.8
03:00 1021 30.15 851 25.13 14.3 57.8 83 11.5 52.8
03:05 1021 30.15 851 25.13 14.3 57.7 84 11.7 53
03:10 1021 30.15 851 25.13 14.2 57.6 83 11.4 52.6
03:15 1021 30.15 851 25.13 14.1 57.4 84 11.6 52.8
03:20 1021 30.15 851 25.13 13.9 57 86 11.6 52.8
03:25 1021 30.15 851 25.13 13.7 56.7 87 11.7 53.1
03:30 1021 30.15 851 25.13 13.6 56.5 88 11.7 53.1
03:35 1021 30.15 851 25.13 13.6 56.4 88 11.7 53
03:40 1021 30.15 851 25.13 13.6 56.5 87 11.6 52.8
03:45 1021 30.15 851 25.13 13.6 56.5 87 11.6 52.9
03:50 1021 30.15 851 25.13 13.6 56.5 88 11.6 53
03:55 1021 30.15 851 25.13 13.7 56.6 87 11.6 52.8
04:00 1021 30.15 851 25.13 13.7 56.7 86 11.5 52.7
04:05 1021 30.15 851 25.13 13.8 56.8 86 11.5 52.7
04:10 1021 30.15 851 25.13 13.8 56.8 86 11.5 52.8
04:15 1021 30.15 851 25.13 13.7 56.7 87 11.7 53.1
04:20 1021 30.15 851 25.13 13.7 56.7 86 11.5 52.8
04:25 1021 30.15 851 25.13 13.8 56.9 87 11.7 53
04:30 1021 30.15 851 25.13 13.8 56.8 86 11.6 52.8
04:35 1021 30.15 851 25.13 13.7 56.7 87 11.7 53
04:40 1021 30.15 851 25.13 13.7 56.7 86 11.5 52.7
04:45 1022 30.18 851 25.13 13.8 56.8 86 11.4 52.5
04:50 1022 30.18 851 25.13 13.8 56.8 86 11.5 52.7
04:55 1021 30.15 851 25.13 13.8 56.8 86 11.5 52.7
05:00 1022 30.18 851 25.13 13.8 56.8 86 11.5 52.8
05:05 1022 30.18 851 25.13 13.8 56.8 86 11.5 52.8
05:10 1022 30.18 851 25.13 13.8 56.8 85 11.4 52.5
05:15 1022 30.18 851 25.13 13.8 56.9 86 11.5 52.7
05:20 1022 30.18 851 25.13 13.8 56.9 84 11.3 52.3
05:25 1022 30.18 851 25.13 13.9 56.9 84 11.3 52.3
05:30 1022 30.18 851 25.13 13.9 56.9 84 11.2 52.1
05:35 1022 30.18 851 25.13 13.9 57 83 11.1 52
05:40 1022 30.18 851 25.13 13.9 56.9 85 11.4 52.5
05:45 1022 30.18 851 25.13 13.7 56.7 86 11.4 52.6
05:50 1022 30.18 851 25.13 13.7 56.6 86 11.3 52.4
05:55 1022 30.18 851 25.13 13.7 56.6 86 11.4 52.6
06:00 1022 30.18 851 25.13 13.7 56.6 86 11.4 52.6
06:05 1022 30.18 851 25.13 13.7 56.6 86 11.4 52.6
06:10 1022 30.18 851 25.13 13.7 56.6 87 11.6 52.9
06:15 1022 30.18 851 25.13 13.7 56.6 87 11.6 52.8
06:20 1022 30.18 851 25.13 13.7 56.6 87 11.6 53
06:25 1022 30.18 851 25.13 13.7 56.7 88 11.7 53.1
06:30 1022 30.18 851 25.13 13.7 56.7 88 11.9 53.4
06:35 1022 30.18 851 25.13 13.7 56.6 90 12 53.6
06:40 1022 30.18 851 25.13 13.6 56.5 89 11.9 53.5
06:45 1022 30.18 851 25.13 13.7 56.6 88 11.8 53.2
06:50 1022 30.18 851 25.13 13.8 56.9 87 11.8 53.2
06:55 1022 30.18 851 25.13 14 57.1 85 11.6 52.8
07:00 1022 30.18 851 25.13 14.2 57.5 85 11.6 52.9
07:05 1022 30.18 851 25.13 14.2 57.6 85 11.8 53.3
07:10 1022 30.18 851 25.13 14.3 57.7 85 11.9 53.4
07:15 1022 30.18 851 25.13 14.3 57.8 85 11.8 53.2
07:20 1022 30.18 851 25.13 14.4 57.8 84 11.7 53
07:25 1022 30.18 851 25.13 14.4 57.9 85 11.9 53.4
07:30 1022 30.18 851 25.13 14.5 58 85 12 53.5
07:35 1022 30.18 851 25.13 14.7 58.5 83 11.9 53.5
07:40 1022 30.18 851 25.13 15.1 59.2 81 11.9 53.5
07:45 1022 30.18 851 25.13 15.3 59.6 81 12.1 53.8
07:50 1022 30.18 851 25.13 15.6 60.1 79 12 53.7
07:55 1022 30.18 851 25.13 15.4 59.6 80 12 53.5
08:00 1022 30.18 851 25.13 15.4 59.7 81 12.1 53.8
08:05 1022 30.18 851 25.13 15.3 59.5 81 12.1 53.7
08:10 1022 30.18 851 25.13 15.2 59.4 81 12 53.7
08:15 1022 30.18 851 25.13 15.4 59.6 81 12.2 53.9
08:20 1022 30.18 851 25.13 15.5 59.8 80 12 53.7
08:25 1022 30.18 851 25.13 15.7 60.3 81 12.4 54.4
08:30 1022 30.18 851 25.13 16 60.8 80 12.7 54.8
08:35 1022 30.18 851 25.13 16.1 61.1 76 11.9 53.4
08:40 1022 30.18 851 25.13 16.2 61.2 74 11.6 52.8
08:45 1022 30.18 851 25.13 16.3 61.4 74 11.8 53.2
08:50 1022 30.18 851 25.13 16.7 62 73 11.8 53.2
08:55 1022 30.18 851 25.13 16.9 62.3 67 10.9 51.6
09:00 1022 30.18 851 25.13 17 62.5 67 10.8 51.5
09:05 1022 30.18 851 25.13 17 62.7 68 11.2 52.2
09:10 1022 30.18 851 25.13 17.4 63.3 67 11.4 52.5
09:15 1022 30.18 851 25.13 17.7 63.9 66 11.4 52.6
09:20 1022 30.18 851 25.13 18 64.4 65 11.4 52.6
09:25 1022 30.18 851 25.13 18 64.5 65 11.4 52.5
09:30 1022 30.18 851 25.13 18.8 65.8 62 11.3 52.4
09:35 1022 30.18 851 25.13 19.1 66.5 58 10.8 51.5
09:40 1022 30.18 851 25.13 19.6 67.2 56 10.7 51.3
09:45 1022 30.18 851 25.13 20.2 68.4 54 10.7 51.3
09:50 1022 30.18 851 25.13 20.6 69.1 53 10.8 51.5
09:55 1022 30.18 851 25.13 20.7 69.3 52 10.5 50.9
10:00 1022 30.18 851 25.13 21.1 69.9 53 11.1 52
10:05 1022 30.18 851 25.13 21 69.7 54 11.4 52.5
10:10 1022 30.18 851 25.13 21.1 70 53 11.3 52.4
10:15 1022 30.18 851 25.13 20.5 68.9 54 11.1 51.9
10:20 1022 30.18 851 25.13 20.5 68.9 53 10.6 51.2
10:25 1022 30.18 851 25.13 21 69.8 51 10.6 51.1
10:30 1022 30.18 851 25.13 21.1 69.9 51 10.7 51.2
10:35 1022 30.18 851 25.13 21.8 71.3 50 11.1 51.9
10:40 1022 30.18 851 25.13 21.6 70.8 50 10.8 51.5
10:45 1022 30.18 851 25.13 21.8 71.2 51 11.3 52.3
10:50 1022 30.18 851 25.13 20.7 69.2 52 10.5 50.9
10:55 1022 30.18 851 25.13 21 69.7 52 10.9 51.6
11:00 1022 30.18 851 25.13 21.2 70.2 52 11.3 52.3
11:05 1022 30.18 851 25.13 21.8 71.3 51 11.5 52.8
11:10 1022 30.18 851 25.13 21.5 70.7 54 11.9 53.4
11:15 1022 30.18 851 25.13 20.2 68.4 56 11.2 52.1
11:20 1022 30.18 851 25.13 20 68 55 10.9 51.5
11:25 1022 30.18 851 25.13 20.3 68.6 53 10.6 51.2
11:30 1022 30.18 851 25.13 21 69.9 52 11 51.8
11:35 1022 30.18 851 25.13 22 71.6 49 11 51.8
11:40 1022 30.18 851 25.13 22.5 72.5 47 10.7 51.2
11:45 1022 30.18 851 25.13 22.2 72 48 11 51.8
11:50 1022 30.18 851 25.13 23 73.4 44 10.2 50.3
11:55 1022 30.18 851 25.13 23.4 74.1 43 10.4 50.7
12:00 1022 30.18 851 25.13 22.4 72.3 47 10.6 51.1
12:05 1022 30.18 851 25.13 21.8 71.2 46 9.9 49.9
12:10 1022 30.18 851 25.13 22.5 72.4 47 10.8 51.5
12:15 1022 30.18 851 25.13 22.2 71.9 48 10.8 51.4
12:20 1022 30.18 851 25.13 23 73.3 39 8.5 47.3
12:25 1022 30.18 851 25.13 24.3 75.8 40 10 49.9
12:30 1021 30.15 851 25.13 24.6 76.3 39 9.8 49.7
12:35 1021 30.15 851 25.13 25.5 77.9 38 10.3 50.5
12:40 1021 30.15 851 25.13 25.4 77.7 38 10.4 50.7
12:45 1021 30.15 851 25.13 25.4 77.6 37 9.9 49.7
12:50 1021 30.15 851 25.13 25.1 77.1 38 10.1 50.3
12:55 1021 30.15 851 25.13 24.7 76.4 41 10.6 51.1
13:00 1021 30.15 851 25.13 23.9 75.1 41 9.9 49.8
13:05 1021 30.15 850 25.1 23.6 74.5 43 10.4 50.8
13:10 1021 30.15 850 25.1 23.9 75 40 9.7 49.5
13:15 1021 30.15 850 25.1 24.2 75.5 41 10.2 50.4
13:20 1021 30.15 850 25.1 24.6 76.3 39 9.8 49.7
13:25 1021 30.15 850 25.1 25 77 37 9.7 49.4
13:30 1021 30.15 850 25.1 24.4 75.9 39 9.9 49.9
13:35 1021 30.15 850 25.1 24 75.2 39 9.6 49.2
13:40 1021 30.15 850 25.1 24.4 75.9 37 8.9 48.1
13:45 1021 30.15 850 25.1 25.4 77.7 36 9.4 48.9
13:50 1021 30.15 850 25.1 26 78.8 33 8.9 48.1
13:55 1021 30.15 850 25.1 25.6 78 37 9.9 49.7
14:00 1021 30.15 850 25.1 24.4 76 38 9.5 49.2
14:05 1021 30.15 850 25.1 23.8 74.8 41 10 50
14:10 1021 30.15 850 25.1 23.8 74.8 39 9 48.3
14:15 1021 30.15 850 25.1 24.1 75.4 38 9.1 48.4
14:20 1021 30.15 850 25.1 24.5 76.1 37 9.2 48.5
14:25 1021 30.15 850 25.1 24.5 76 38 9.3 48.7
14:30 1021 30.15 850 25.1 24.6 76.3 37 9.1 48.4
14:35 1021 30.15 850 25.1 25 76.9 36 8.9 48
14:40 1021 30.15 850 25.1 25 77.1 35 8.9 48
14:45 1021 30.15 850 25.1 25.2 77.4 35 8.7 47.7
14:50 1020 30.12 850 25.1 24.7 76.5 36 8.8 47.9
14:55 1020 30.12 850 25.1 25.1 77.2 34 8.4 47.2
15:00 1020 30.12 850 25.1 25.8 78.5 33 8.6 47.5
15:05 1020 30.12 849 25.07 25.3 77.5 35 9 48.2
15:10 1020 30.12 849 25.07 24.8 76.7 34 8.3 46.9
15:15 1020 30.12 849 25.07 25.6 78 32 8 46.4
15:20 1020 30.12 849 25.07 26.3 79.4 34 9.4 48.9
15:25 1020 30.12 849 25.07 25.4 77.8 33 8.2 46.7
15:30 1020 30.12 849 25.07 25.4 77.8 33 8.1 46.5
15:35 1020 30.12 849 25.07 25.9 78.7 33 8.6 47.4
15:40 1020 30.12 849 25.07 25.3 77.5 34 8.5 47.3
15:45 1020 30.12 849 25.07 25.4 77.7 33 8.2 46.8
15:50 1020 30.12 849 25.07 25.3 77.5 33 8.3 46.9
15:55 1020 30.12 849 25.07 25.9 78.6 32 8.3 46.9
16:00 1020 30.12 849 25.07 26.7 80.1 32 8.8 47.8
16:05 1020 30.12 849 25.07 27.1 80.8 32 9.4 48.9
16:10 1020 30.12 849 25.07 25.7 78.3 35 9.2 48.6
16:15 1020 30.12 849 25.07 25.5 77.8 34 8.8 47.8
16:20 1020 30.12 849 25.07 25.2 77.4 35 9.1 48.4
16:25 1020 30.12 849 25.07 25.1 77.1 35 8.7 47.7
16:30 1020 30.12 849 25.07 25.3 77.5 35 8.9 48
16:35 1020 30.12 849 25.07 25.9 78.5 33 8.7 47.6
16:40 1020 30.12 849 25.07 26.1 78.9 34 9.3 48.8
16:45 1020 30.12 849 25.07 26.2 79.2 34 9.2 48.5
16:50 1020 30.12 849 25.07 26.1 79 34 9.1 48.3
16:55 1020 30.12 849 25.07 25.8 78.4 34 8.9 48
17:00 1020 30.12 849 25.07 25.9 78.5 36 9.8 49.7
17:05 1020 30.12 849 25.07 24.8 76.7 39 10 49.9
17:10 1020 30.12 849 25.07 24.5 76.1 38 9.4 48.9
17:15 1020 30.12 849 25.07 24.4 75.8 38 9.5 49.2
17:20 1020 30.12 849 25.07 24.8 76.6 37 9.2 48.6
17:25 1020 30.12 849 25.07 25 77 37 9.4 48.9
17:30 1020 30.12 849 25.07 25.1 77.2 36 9.4 48.9
17:35 1020 30.12 849 25.07 24.8 76.7 38 9.6 49.3
17:40 1020 30.12 849 25.07 24.7 76.4 39 10.1 50.1
17:45 1020 30.12 849 25.07 24.5 76.1 39 9.9 49.8
17:50 1020 30.12 849 25.07 24.6 76.2 37 9 48.2
17:55 1020 30.12 849 25.07 24.7 76.5 36 9 48.1
18:00 1020 30.12 849 25.07 24.6 76.4 38 9.5 49.1
18:05 1020 30.12 849 25.07 24.2 75.5 39 9.5 49
18:10 1020 30.12 849 25.07 24.1 75.3 39 9.5 49.2
18:15 1020 30.12 849 25.07 24.1 75.4 39 9.6 49.4
18:20 1020 30.12 849 25.07 24 75.1 40 9.8 49.6
18:25 1020 30.12 849 25.07 23.8 74.9 40 9.6 49.3
18:30 1020 30.12 849 25.07 23.8 74.8 40 9.7 49.4
18:35 1020 30.12 849 25.07 23.6 74.4 41 9.7 49.5
18:40 1020 30.12 849 25.07 23.5 74.2 42 10 50
18:45 1020 30.12 849 25.07 23.3 74 43 10.1 50.1
18:50 1020 30.12 849 25.07 23.2 73.7 43 10.1 50.3
18:55 1020 30.12 849 25.07 23 73.5 43 10 50
19:00 1020 30.12 849 25.07 22.9 73.3 44 10.2 50.4
19:05 1020 30.12 849 25.07 22.8 73 44 9.9 49.9
19:10 1020 30.12 849 25.07 22.6 72.7 44 9.8 49.6
19:15 1020 30.12 849 25.07 22.5 72.4 44 9.8 49.7
19:20 1020 30.12 849 25.07 22.3 72.1 44 9.7 49.5
19:25 1020 30.12 849 25.07 22.1 71.8 45 9.9 49.8
19:30 1020 30.12 849 25.07 21.9 71.4 46 9.9 49.9
19:35 1020 30.12 849 25.07 21.6 70.9 48 10.2 50.4
19:40 1020 30.12 849 25.07 21.4 70.5 49 10.3 50.5
19:45 1020 30.12 849 25.07 21.2 70.2 49 10.2 50.3
19:50 1020 30.12 849 25.07 21.1 70 49 10.2 50.4
19:55 1020 30.12 849 25.07 21 69.8 50 10.2 50.3
20:00 1020 30.12 849 25.07 21 69.8 50 10.2 50.3
20:05 1020 30.12 849 25.07 20.9 69.6 50 10.1 50.3
20:10 1020 30.12 849 25.07 20.8 69.4 50 10.2 50.3
20:15 1020 30.12 849 25.07 20.6 69.1 51 10.4 50.7
20:20 1020 30.12 849 25.07 20.4 68.8 52 10.4 50.7
20:25 1020 30.12 849 25.07 20.3 68.6 52 10.4 50.8
20:30 1020 30.12 849 25.07 20.2 68.4 53 10.5 50.8
20:35 1020 30.12 849 25.07 20.1 68.3 53 10.4 50.8
20:40 1020 30.12 850 25.1 20.1 68.1 53 10.4 50.8
20:45 1020 30.12 850 25.1 20 67.9 54 10.5 50.9
20:50 1020 30.12 850 25.1 19.9 67.8 54 10.4 50.8
20:55 1020 30.12 850 25.1 19.9 67.8 53 10.3 50.5
21:00 1020 30.12 850 25.1 19.9 67.9 53 10.2 50.4
21:05 1020 30.12 850 25.1 19.9 67.9 53 10.3 50.5
21:10 1020 30.12 850 25.1 19.9 67.8 54 10.3 50.5
21:15 1020 30.12 850 25.1 19.9 67.7 53 10.2 50.4
21:20 1020 30.12 850 25.1 19.9 67.7 54 10.3 50.5
21:25 1021 30.15 850 25.1 19.7 67.5 54 10.2 50.4
21:30 1021 30.15 850 25.1 19.7 67.5 54 10.3 50.5
21:35 1020 30.12 850 25.1 19.7 67.4 54 10.3 50.6
21:40 1021 30.15 850 25.1 19.6 67.2 55 10.4 50.6
21:45 1020 30.12 850 25.1 19.5 67 55 10.3 50.5
21:50 1020 30.12 850 25.1 19.4 66.9 55 10.2 50.4
21:55 1020 30.12 850 25.1 19.3 66.7 55 10.2 50.4
22:00 1020 30.12 850 25.1 19.1 66.4 55 10.1 50.2
22:05 1020 30.12 850 25.1 19 66.1 56 10 50
22:10 1021 30.15 850 25.1 18.8 65.9 56 9.9 49.8
22:15 1020 30.12 850 25.1 18.9 65.9 55 9.6 49.3
22:20 1020 30.12 850 25.1 19 66.2 54 9.6 49.3
22:25 1020 30.12 850 25.1 18.9 66.1 55 9.8 49.6
22:30 1020 30.12 850 25.1 18.7 65.7 55 9.6 49.3
22:35 1020 30.12 850 25.1 18.8 65.8 54 9.4 49
22:40 1021 30.15 850 25.1 18.9 65.9 54 9.4 48.9
22:45 1020 30.12 850 25.1 19 66.2 53 9.3 48.7
22:50 1021 30.15 850 25.1 19 66.2 53 9.4 49
22:55 1021 30.15 850 25.1 18.9 66.1 53 9.3 48.7
23:00 1021 30.15 850 25.1 18.9 66 53 9.3 48.8
23:05 1021 30.15 850 25.1 18.7 65.6 55 9.5 49.1
23:10 1021 30.15 850 25.1 18.5 65.4 56 9.6 49.3
23:15 1021 30.15 850 25.1 18.5 65.3 57 9.9 49.7
23:20 1021 30.15 850 25.1 18.4 65.2 58 10 50
23:25 1021 30.15 850 25.1 18.4 65.1 58 10.1 50.2
23:30 1021 30.15 850 25.1 18.4 65.1 58 10.2 50.3
23:35 1021 30.15 850 25.1 18.3 64.9 59 10.3 50.5
23:40 1021 30.15 850 25.1 18.2 64.7 59 10.3 50.5
23:45 1021 30.15 850 25.1 18.1 64.6 60 10.3 50.5
23:50 1021 30.15 850 25.1 18.1 64.6 60 10.3 50.6
23:55 1021 30.15 850 25.1 18.1 64.6 60 10.3 50.5
24:00 1021 30.15 850 25.1 18.1 64.5 60 10.3 50.5